Time;durP1;ratioP1;P1;durP2;ratioP2;P2;SDS_P1;SDS_P2;PMS_P1;PMS_P2;Temp;Humidity;BMP_temperature;BMP_pressure;BME280_temperature;BME280_humidity;BME280_pressure;Samples;Min_cycle;Max_cycle;Signal;HPM_P1;HPM_P2
2021/09/19 00:00:17;;;;;;;5.40;5.00;;;14.30;99.90;;;;;;5055892;28;20166;-84
2021/09/19 00:02:42;;;;;;;5.33;4.93;;;14.30;99.90;;;;;;5059961;28;20170;-85
2021/09/19 00:05:10;;;;;;;6.37;5.77;;;14.30;99.90;;;;;;5059521;28;20250;-85
2021/09/19 00:07:36;;;;;;;6.10;5.30;;;14.30;99.90;;;;;;5061083;28;20189;-84
2021/09/19 00:10:03;;;;;;;6.30;5.80;;;14.30;99.90;;;;;;5061635;28;20181;-85
2021/09/19 00:12:29;;;;;;;6.60;6.10;;;14.30;99.90;;;;;;5061692;28;20202;-85
2021/09/19 00:14:55;;;;;;;6.33;5.83;;;14.30;99.90;;;;;;5061035;28;20186;-84
2021/09/19 00:17:20;;;;;;;6.77;6.27;;;14.20;99.90;;;;;;5061876;28;20239;-85
2021/09/19 00:19:46;;;;;;;7.23;6.53;;;14.20;99.90;;;;;;5060746;28;20185;-84
2021/09/19 00:22:11;;;;;;;6.33;5.83;;;14.20;99.90;;;;;;5060875;28;20173;-83
2021/09/19 00:24:38;;;;;;;6.53;6.03;;;14.20;99.90;;;;;;5062179;28;20215;-84
2021/09/19 00:27:04;;;;;;;8.10;7.43;;;14.20;99.90;;;;;;5061059;28;20205;-85
2021/09/19 00:29:30;;;;;;;7.57;6.80;;;14.20;99.90;;;;;;5064092;28;20170;-85
2021/09/19 00:31:56;;;;;;;8.60;7.70;;;14.20;99.90;;;;;;5065079;28;20166;-84
2021/09/19 00:34:22;;;;;;;7.83;7.23;;;14.20;99.90;;;;;;5065623;28;20202;-84
2021/09/19 00:36:48;;;;;;;8.90;7.63;;;14.20;99.90;;;;;;5060335;28;20210;-84
2021/09/19 00:39:14;;;;;;;9.20;8.50;;;14.10;99.90;;;;;;5060784;28;20188;-84
2021/09/19 00:41:40;;;;;;;9.47;8.20;;;14.10;99.90;;;;;;5064304;28;20178;-82
2021/09/19 00:44:09;;;;;;;8.57;7.77;;;14.10;99.90;;;;;;5063270;28;20268;-85
2021/09/19 00:46:36;;;;;;;9.47;8.60;;;14.00;99.90;;;;;;5064659;28;20256;-84
2021/09/19 00:49:02;;;;;;;9.33;8.50;;;14.10;99.90;;;;;;5064631;28;20173;-85
2021/09/19 00:51:29;;;;;;;10.17;9.27;;;14.10;99.90;;;;;;5069133;28;20188;-84
2021/09/19 00:53:57;;;;;;;9.13;8.20;;;13.90;99.90;;;;;;5064980;28;20198;-85
2021/09/19 00:56:26;;;;;;;8.97;8.27;;;13.90;99.90;;;;;;5064651;28;20177;-85
2021/09/19 00:58:54;;;;;;;9.80;8.90;;;13.90;99.90;;;;;;5065302;28;20185;-85
2021/09/19 01:01:20;;;;;;;10.37;9.47;;;14.00;99.90;;;;;;5063272;28;20177;-84
2021/09/19 01:03:46;;;;;;;10.57;9.70;;;13.90;99.90;;;;;;5065281;28;20201;-84
2021/09/19 01:06:13;;;;;;;11.00;10.00;;;13.90;99.90;;;;;;5064802;28;20209;-84
2021/09/19 01:08:42;;;;;;;10.97;9.90;;;13.80;99.90;;;;;;5064299;28;20208;-84
2021/09/19 01:11:10;;;;;;;10.90;9.80;;;13.80;99.90;;;;;;5064254;28;20203;-85
2021/09/19 01:13:36;;;;;;;10.30;9.37;;;13.80;99.90;;;;;;5064727;28;20254;-84
2021/09/19 01:16:04;;;;;;;10.43;9.53;;;13.80;99.90;;;;;;5064853;28;20205;-84
2021/09/19 01:18:31;;;;;;;11.37;10.43;;;13.80;99.90;;;;;;5062887;28;20190;-84
2021/09/19 01:20:57;;;;;;;12.23;10.93;;;13.80;99.90;;;;;;5078767;28;20176;-83
2021/09/19 01:23:23;;;;;;;12.10;11.00;;;13.70;99.90;;;;;;5064945;28;20265;-85
2021/09/19 01:25:49;;;;;;;13.27;12.07;;;13.70;99.90;;;;;;5064362;28;20205;-84
2021/09/19 01:28:15;;;;;;;13.23;11.97;;;13.80;99.90;;;;;;5064704;28;20209;-84
2021/09/19 01:30:41;;;;;;;14.73;12.13;;;13.80;99.90;;;;;;5064791;28;20178;-84
2021/09/19 01:33:07;;;;;;;14.80;13.30;;;13.80;99.90;;;;;;5065179;28;20205;-85
2021/09/19 01:35:34;;;;;;;16.00;14.50;;;13.80;99.90;;;;;;5065246;28;20178;-84
2021/09/19 01:38:00;;;;;;;19.70;13.83;;;13.80;99.90;;;;;;5055778;28;20213;-85
2021/09/19 01:40:27;;;;;;;15.07;13.57;;;13.80;99.90;;;;;;5063348;28;20174;-84
2021/09/19 01:42:53;;;;;;;16.23;14.63;;;13.80;99.90;;;;;;5064656;28;20550;-84
2021/09/19 01:45:20;;;;;;;16.87;15.27;;;13.80;99.90;;;;;;5063046;28;20186;-85
2021/09/19 01:47:46;;;;;;;16.07;14.47;;;13.80;99.90;;;;;;5063593;28;20667;-84
2021/09/19 01:50:12;;;;;;;16.50;14.90;;;13.80;99.90;;;;;;5064102;28;20184;-85
2021/09/19 01:52:38;;;;;;;16.20;14.60;;;13.70;99.90;;;;;;5063005;28;20280;-84
2021/09/19 01:55:05;;;;;;;17.13;15.53;;;13.70;99.90;;;;;;5062537;28;20182;-85
2021/09/19 01:57:31;;;;;;;17.67;15.87;;;13.70;99.90;;;;;;5063594;28;20190;-85
2021/09/19 01:59:57;;;;;;;18.13;16.27;;;13.70;99.90;;;;;;5063035;28;20174;-84
2021/09/19 02:02:23;;;;;;;16.50;14.77;;;13.70;99.90;;;;;;5062765;28;20579;-84
2021/09/19 02:04:51;;;;;;;17.50;15.73;;;13.70;99.90;;;;;;5062740;28;20269;-84
2021/09/19 02:07:17;;;;;;;17.60;15.90;;;13.70;99.90;;;;;;5063682;28;20190;-84
2021/09/19 02:09:43;;;;;;;17.87;16.17;;;13.70;99.90;;;;;;5064232;28;20519;-84
2021/09/19 02:12:09;;;;;;;17.90;16.00;;;13.70;99.90;;;;;;5076682;28;20182;-85
2021/09/19 02:14:35;;;;;;;17.50;15.70;;;13.70;99.90;;;;;;5062547;28;20178;-82
2021/09/19 02:17:01;;;;;;;18.37;15.97;;;13.70;99.90;;;;;;5063621;28;20535;-85
2021/09/19 02:19:27;;;;;;;17.07;15.47;;;13.70;99.90;;;;;;5063634;28;20170;-85
2021/09/19 02:21:53;;;;;;;20.20;17.17;;;13.70;99.90;;;;;;5054089;28;20192;-84
2021/09/19 02:24:19;;;;;;;18.07;16.27;;;13.70;99.90;;;;;;5058586;28;20185;-85
2021/09/19 02:26:45;;;;;;;19.70;17.57;;;13.70;99.90;;;;;;5060259;28;20185;-85
2021/09/19 02:29:10;;;;;;;19.50;17.23;;;13.70;99.90;;;;;;5062089;28;20171;-84
2021/09/19 02:31:36;;;;;;;18.10;16.30;;;13.70;99.90;;;;;;5063426;28;20190;-84
2021/09/19 02:34:02;;;;;;;19.47;16.40;;;13.70;99.90;;;;;;5063072;28;20213;-84
2021/09/19 02:36:27;;;;;;;19.27;17.27;;;13.70;99.90;;;;;;5062391;28;20178;-82
2021/09/19 02:38:54;;;;;;;19.10;17.10;;;13.60;99.90;;;;;;5056269;28;20288;-85
2021/09/19 02:41:22;;;;;;;21.20;18.60;;;13.60;99.90;;;;;;5062383;28;20269;-84
2021/09/19 02:43:49;;;;;;;18.70;16.87;;;13.60;99.90;;;;;;5074039;28;20226;-84
2021/09/19 02:46:14;;;;;;;20.27;17.77;;;13.60;99.90;;;;;;5065523;28;20169;-84
2021/09/19 02:48:40;;;;;;;19.30;17.27;;;13.60;99.90;;;;;;5064144;28;20733;-84
2021/09/19 02:51:06;;;;;;;19.60;16.53;;;13.60;99.90;;;;;;5063229;28;20185;-84
2021/09/19 02:53:31;;;;;;;21.23;19.03;;;13.60;99.90;;;;;;5062939;28;20197;-84
2021/09/19 02:55:57;;;;;;;20.07;17.93;;;13.50;99.90;;;;;;5060142;28;20204;-84
2021/09/19 02:58:22;;;;;;;20.57;18.23;;;13.50;99.90;;;;;;5063011;28;20196;-84
2021/09/19 03:00:48;;;;;;;21.90;19.57;;;13.60;99.90;;;;;;5062426;28;20227;-84
2021/09/19 03:03:14;;;;;;;24.23;19.27;;;13.50;99.90;;;;;;5063025;28;20184;-84
2021/09/19 03:05:39;;;;;;;23.83;20.93;;;13.50;99.90;;;;;;5062962;28;20174;-82
2021/09/19 03:08:05;;;;;;;23.03;20.23;;;13.40;99.90;;;;;;5067487;28;20215;-84
2021/09/19 03:10:30;;;;;;;20.83;18.63;;;13.40;99.90;;;;;;5069297;28;20178;-84
2021/09/19 03:12:56;;;;;;;26.27;20.50;;;13.40;99.90;;;;;;5075606;28;20196;-83
2021/09/19 03:15:22;;;;;;;21.93;19.20;;;13.50;99.90;;;;;;5066780;28;20177;-84
2021/09/19 03:17:49;;;;;;;24.20;21.03;;;13.40;99.90;;;;;;5062837;28;20197;-85
2021/09/19 03:20:16;;;;;;;23.57;19.67;;;13.50;99.90;;;;;;5062838;28;20185;-85
2021/09/19 03:22:43;;;;;;;22.77;20.37;;;13.50;99.90;;;;;;5063167;28;20195;-84
2021/09/19 03:25:09;;;;;;;21.47;19.10;;;13.50;99.90;;;;;;5061952;28;20186;-85
2021/09/19 03:27:35;;;;;;;28.53;21.30;;;13.50;99.90;;;;;;5060703;28;20203;-83
2021/09/19 03:30:01;;;;;;;22.37;19.37;;;13.40;99.90;;;;;;5062534;28;20184;-84
2021/09/19 03:32:27;;;;;;;24.23;20.23;;;13.40;99.90;;;;;;5062124;28;20193;-84
2021/09/19 03:34:52;;;;;;;20.80;18.70;;;13.50;99.90;;;;;;5061128;28;20189;-84
2021/09/19 03:39:43;;;;;;;22.53;19.77;;;13.40;99.90;;;;;;5050352;22;20234;-77
2021/09/19 03:42:09;;;;;;;26.43;19.83;;;13.40;99.90;;;;;;5038212;28;20253;-77
2021/09/19 03:44:35;;;;;;;22.60;19.43;;;13.40;99.90;;;;;;5053620;28;20232;-77
2021/09/19 03:47:00;;;;;;;22.60;19.37;;;13.40;99.90;;;;;;5053071;28;20205;-77
2021/09/19 03:49:26;;;;;;;20.20;18.03;;;13.40;99.90;;;;;;5038733;28;20198;-77
2021/09/19 03:51:52;;;;;;;20.37;18.07;;;13.50;99.90;;;;;;5033927;28;20553;-77
2021/09/19 03:54:18;;;;;;;21.27;19.03;;;13.50;99.90;;;;;;5033106;28;20289;-77
2021/09/19 03:56:43;;;;;;;22.47;18.60;;;13.40;99.90;;;;;;5016581;28;20262;-77
2021/09/19 03:59:09;;;;;;;20.73;18.40;;;13.40;99.90;;;;;;5014309;28;20284;-77
2021/09/19 04:01:34;;;;;;;21.40;19.10;;;13.30;99.90;;;;;;5020733;28;20170;-77
2021/09/19 04:04:00;;;;;;;21.33;18.00;;;13.30;99.90;;;;;;5019839;28;20175;-77
2021/09/19 04:06:26;;;;;;;22.03;19.50;;;13.30;99.90;;;;;;5018617;28;20175;-77
2021/09/19 04:08:52;;;;;;;20.80;18.40;;;13.30;99.90;;;;;;5019165;28;20289;-74
2021/09/19 04:11:17;;;;;;;22.60;18.50;;;13.30;99.90;;;;;;5017632;28;20222;-75
2021/09/19 04:13:43;;;;;;;20.93;18.67;;;13.30;99.90;;;;;;5025393;28;20306;-75
2021/09/19 04:16:09;;;;;;;22.40;19.67;;;13.30;99.90;;;;;;5015704;28;20175;-76
2021/09/19 04:18:34;;;;;;;20.23;17.40;;;13.40;99.90;;;;;;5013884;28;20199;-74
2021/09/19 04:21:00;;;;;;;20.47;18.27;;;13.30;99.90;;;;;;5014399;28;20182;-75
2021/09/19 04:23:26;;;;;;;19.90;17.80;;;13.40;99.90;;;;;;5014080;28;20259;-75
2021/09/19 04:25:51;;;;;;;20.67;18.47;;;13.30;99.90;;;;;;5015772;28;20227;-75
2021/09/19 04:28:17;;;;;;;22.80;19.37;;;13.30;99.90;;;;;;5013302;28;20674;-74
2021/09/19 04:30:43;;;;;;;22.30;18.57;;;13.30;99.90;;;;;;5015117;28;20175;-75
2021/09/19 04:33:09;;;;;;;23.63;19.70;;;13.30;99.90;;;;;;5016039;28;20234;-75
2021/09/19 04:35:41;;;;;;;22.70;19.83;;;13.20;99.90;;;;;;5013944;28;20175;-73
2021/09/19 04:38:06;;;;;;;20.27;18.17;;;13.20;99.90;;;;;;5017777;28;20264;-75
2021/09/19 04:40:32;;;;;;;24.20;18.60;;;13.20;99.90;;;;;;5013958;28;20661;-75
2021/09/19 04:42:58;;;;;;;21.83;19.50;;;13.30;99.90;;;;;;5017836;28;20194;-75
2021/09/19 04:45:24;;;;;;;23.47;19.93;;;13.20;99.90;;;;;;5014006;28;20197;-75
2021/09/19 04:47:49;;;;;;;21.17;18.87;;;13.20;99.90;;;;;;5015920;28;20214;-75
2021/09/19 04:50:15;;;;;;;21.87;19.47;;;13.10;99.90;;;;;;5035240;28;20184;-75
2021/09/19 04:52:41;;;;;;;22.60;19.60;;;13.10;99.90;;;;;;5038806;28;20359;-75
2021/09/19 04:55:07;;;;;;;22.73;20.07;;;13.10;99.90;;;;;;5030695;28;20174;-76
2021/09/19 04:57:33;;;;;;;26.20;19.40;;;13.10;99.90;;;;;;5031212;28;20519;-75
2021/09/19 04:59:59;;;;;;;21.00;18.80;;;13.10;99.90;;;;;;5031051;28;20177;-76
2021/09/19 05:02:24;;;;;;;22.13;19.53;;;13.10;99.90;;;;;;5030144;28;20171;-76
2021/09/19 05:04:50;;;;;;;21.87;18.60;;;13.00;99.90;;;;;;5031527;28;20645;-75
2021/09/19 05:07:15;;;;;;;20.67;18.47;;;13.00;99.90;;;;;;5031846;28;20583;-74
2021/09/19 05:09:42;;;;;;;23.70;20.07;;;13.00;99.90;;;;;;5033145;28;20562;-74
2021/09/19 05:12:08;;;;;;;22.53;19.60;;;13.00;99.90;;;;;;5033088;28;20175;-75
2021/09/19 05:14:33;;;;;;;21.20;18.80;;;13.00;99.90;;;;;;5032951;28;20214;-75
2021/09/19 05:16:59;;;;;;;26.30;20.37;;;12.90;99.90;;;;;;5035271;28;20548;-75
2021/09/19 05:19:25;;;;;;;21.43;18.97;;;12.90;99.90;;;;;;5036557;28;20201;-74
2021/09/19 05:21:51;;;;;;;22.87;19.50;;;12.90;99.90;;;;;;5035598;28;20361;-74
2021/09/19 05:24:16;;;;;;;26.83;20.20;;;13.00;99.90;;;;;;5036611;28;20209;-75
2021/09/19 05:26:42;;;;;;;22.80;19.90;;;13.00;99.90;;;;;;5036527;28;20217;-76
2021/09/19 05:29:08;;;;;;;23.27;19.67;;;13.00;99.90;;;;;;5036266;28;20202;-74
2021/09/19 05:31:33;;;;;;;21.40;19.10;;;13.00;99.90;;;;;;5036472;28;20611;-74
2021/09/19 05:33:59;;;;;;;23.60;19.97;;;13.00;99.90;;;;;;5034709;28;20206;-74
2021/09/19 05:36:25;;;;;;;25.00;20.07;;;13.00;99.90;;;;;;5035072;28;20171;-74
2021/09/19 05:38:51;;;;;;;25.57;21.13;;;13.10;99.90;;;;;;5028573;28;20205;-74
2021/09/19 05:41:16;;;;;;;25.67;21.07;;;13.10;99.90;;;;;;5034957;28;20216;-76
2021/09/19 05:43:42;;;;;;;23.67;20.53;;;13.10;99.90;;;;;;5034817;28;20204;-74
2021/09/19 05:46:09;;;;;;;21.53;19.23;;;13.10;99.90;;;;;;5033212;28;20619;-75
2021/09/19 05:48:36;;;;;;;23.67;19.13;;;13.10;99.90;;;;;;5036299;28;20730;-75
2021/09/19 05:51:02;;;;;;;23.47;20.43;;;13.10;99.90;;;;;;5036024;28;20192;-76
2021/09/19 05:53:28;;;;;;;20.30;18.20;;;13.10;99.90;;;;;;5034583;28;20259;-75
2021/09/19 05:55:53;;;;;;;23.33;20.00;;;13.10;99.90;;;;;;5036500;28;20182;-74
2021/09/19 05:58:19;;;;;;;21.53;19.03;;;13.00;99.90;;;;;;5035976;28;20673;-75
2021/09/19 06:00:45;;;;;;;24.13;19.70;;;13.10;99.90;;;;;;5036044;28;20178;-75
2021/09/19 06:03:11;;;;;;;22.57;18.87;;;13.10;99.90;;;;;;5034362;28;20212;-75
2021/09/19 06:05:36;;;;;;;21.63;19.20;;;13.20;99.90;;;;;;5035507;28;20224;-75
2021/09/19 06:08:02;;;;;;;21.53;19.13;;;13.30;99.90;;;;;;5034913;28;20284;-74
2021/09/19 06:10:28;;;;;;;21.00;18.67;;;13.30;99.90;;;;;;5019652;28;20186;-75
2021/09/19 06:12:54;;;;;;;24.97;18.87;;;13.30;99.90;;;;;;5021702;28;20201;-74
2021/09/19 06:15:19;;;;;;;21.53;18.87;;;13.30;99.90;;;;;;5019931;28;20177;-74
2021/09/19 06:17:45;;;;;;;20.80;18.60;;;13.30;99.90;;;;;;5020839;28;20273;-74
2021/09/19 06:20:11;;;;;;;24.03;19.67;;;13.00;99.90;;;;;;5025177;28;20519;-74
2021/09/19 06:22:37;;;;;;;23.90;20.13;;;12.90;99.90;;;;;;5035087;28;20220;-76
2021/09/19 06:25:26;;;;;;;24.83;20.37;;;12.70;99.90;;;;;;5035351;28;20179;-71
2021/09/19 06:27:58;;;;;;;22.73;19.73;;;12.70;99.90;;;;;;4996863;28;20273;-72
2021/09/19 06:30:25;;;;;;;23.30;18.60;;;12.80;99.90;;;;;;5033195;28;20240;-74
2021/09/19 06:32:51;;;;;;;22.27;19.80;;;12.90;99.90;;;;;;5033970;28;20206;-75
2021/09/19 06:35:17;;;;;;;24.20;19.53;;;13.00;99.90;;;;;;5024998;28;20193;-75
2021/09/19 06:37:43;;;;;;;22.47;19.63;;;13.10;99.90;;;;;;5022616;28;20288;-75
2021/09/19 06:40:09;;;;;;;26.47;20.33;;;13.20;99.90;;;;;;5033722;28;20247;-75
2021/09/19 06:42:35;;;;;;;22.33;19.07;;;13.30;99.90;;;;;;5034935;28;20645;-75
2021/09/19 06:45:01;;;;;;;22.80;19.67;;;13.40;99.90;;;;;;5035345;28;20185;-75
2021/09/19 06:47:26;;;;;;;21.07;18.87;;;13.50;99.90;;;;;;5022147;28;20645;-75
2021/09/19 06:49:53;;;;;;;21.93;18.40;;;13.60;99.90;;;;;;5019927;28;20650;-75
2021/09/19 06:52:19;;;;;;;23.57;18.53;;;13.70;99.90;;;;;;5032911;28;20210;-74
2021/09/19 06:54:45;;;;;;;22.20;18.57;;;13.70;99.90;;;;;;5041235;28;20170;-76
2021/09/19 06:57:11;;;;;;;20.10;18.00;;;13.70;99.90;;;;;;5015441;28;20677;-76
2021/09/19 06:59:36;;;;;;;20.53;18.40;;;13.70;99.90;;;;;;5024674;28;20229;-75
2021/09/19 07:02:03;;;;;;;20.60;18.43;;;13.80;99.90;;;;;;5018894;28;20216;-75
2021/09/19 07:04:29;;;;;;;19.13;17.13;;;13.90;99.90;;;;;;5013857;28;20175;-75
2021/09/19 07:06:54;;;;;;;19.10;17.20;;;13.90;99.90;;;;;;5015134;28;20189;-75
2021/09/19 07:09:20;;;;;;;20.00;17.83;;;13.90;99.90;;;;;;5023819;28;20198;-75
2021/09/19 07:11:46;;;;;;;22.73;18.30;;;13.90;99.90;;;;;;5016681;28;20647;-76
2021/09/19 07:14:11;;;;;;;24.10;18.87;;;13.90;99.90;;;;;;5027889;28;20289;-76
2021/09/19 07:16:37;;;;;;;21.33;19.07;;;14.00;99.90;;;;;;5015539;28;20555;-74
2021/09/19 07:19:03;;;;;;;20.87;18.60;;;14.00;99.90;;;;;;5027073;28;20201;-75
2021/09/19 07:21:28;;;;;;;21.07;17.90;;;14.00;99.90;;;;;;5022776;28;20182;-75
2021/09/19 07:23:54;;;;;;;19.60;17.60;;;14.10;99.90;;;;;;5021163;28;20756;-75
2021/09/19 07:26:20;;;;;;;20.43;17.47;;;14.10;99.90;;;;;;5027135;28;20185;-75
2021/09/19 07:28:47;;;;;;;20.17;17.97;;;14.20;99.90;;;;;;5023224;28;20206;-75
2021/09/19 07:31:13;;;;;;;18.33;16.53;;;14.20;99.90;;;;;;5031518;28;20179;-76
2021/09/19 07:33:39;;;;;;;18.87;16.97;;;14.20;99.90;;;;;;5025777;28;20213;-75
2021/09/19 07:39:20;;;;;;;18.67;16.17;;;14.10;99.90;;;;;;5058220;22;20306;-74
2021/09/19 07:41:47;;;;;;;20.70;16.63;;;14.30;99.90;;;;;;5017364;28;20706;-75
2021/09/19 07:44:13;;;;;;;19.03;17.03;;;14.40;99.90;;;;;;4993366;28;20212;-77
2021/09/19 07:46:39;;;;;;;18.90;16.90;;;14.50;99.90;;;;;;4994957;28;20176;-76
2021/09/19 07:49:05;;;;;;;18.30;16.30;;;14.50;99.90;;;;;;5020292;28;20215;-76
2021/09/19 07:51:31;;;;;;;17.97;16.03;;;14.50;99.90;;;;;;4993592;28;20552;-76
2021/09/19 07:53:57;;;;;;;16.77;14.97;;;14.60;99.90;;;;;;4995117;28;20206;-76
2021/09/19 07:56:23;;;;;;;16.43;14.63;;;14.70;99.90;;;;;;5007531;28;20227;-76
2021/09/19 07:58:49;;;;;;;16.40;14.80;;;14.80;99.90;;;;;;4994870;28;20203;-76
2021/09/19 08:01:15;;;;;;;15.27;13.87;;;14.90;99.90;;;;;;4991823;28;20554;-75
2021/09/19 08:03:40;;;;;;;16.03;14.33;;;14.90;99.90;;;;;;4991516;28;20183;-74
2021/09/19 08:06:06;;;;;;;15.93;14.33;;;15.00;99.90;;;;;;4993277;28;20215;-75
2021/09/19 08:08:32;;;;;;;15.57;14.07;;;15.00;99.90;;;;;;4992980;28;20206;-75
2021/09/19 08:10:58;;;;;;;17.00;14.87;;;15.10;99.90;;;;;;4989884;28;20530;-75
2021/09/19 08:13:24;;;;;;;15.77;14.03;;;15.10;99.90;;;;;;4994482;28;20202;-76
2021/09/19 08:15:50;;;;;;;14.70;13.27;;;15.20;99.90;;;;;;4992966;28;20548;-74
2021/09/19 08:18:16;;;;;;;14.90;13.40;;;15.20;99.90;;;;;;4994058;28;20618;-75
2021/09/19 08:20:43;;;;;;;14.80;13.40;;;15.30;99.90;;;;;;4994410;28;20163;-76
2021/09/19 08:23:10;;;;;;;13.00;11.90;;;15.40;99.90;;;;;;4993938;28;20168;-73
2021/09/19 08:25:35;;;;;;;12.77;11.57;;;15.40;99.90;;;;;;4993839;28;20195;-76
2021/09/19 08:28:02;;;;;;;12.10;11.00;;;15.50;99.90;;;;;;4992458;28;20226;-73
2021/09/19 08:30:27;;;;;;;12.23;10.93;;;15.50;99.90;;;;;;4992519;28;20203;-74
2021/09/19 08:32:53;;;;;;;12.30;11.20;;;15.60;99.90;;;;;;4993815;28;20236;-76
2021/09/19 08:35:18;;;;;;;11.50;10.60;;;15.70;99.90;;;;;;4993872;28;20174;-76
2021/09/19 08:37:44;;;;;;;11.10;10.00;;;15.80;99.90;;;;;;5007477;28;20201;-76
2021/09/19 08:40:12;;;;;;;10.47;9.57;;;15.80;99.90;;;;;;4992311;28;20248;-76
2021/09/19 08:42:39;;;;;;;9.80;9.00;;;15.80;99.90;;;;;;4991149;28;20598;-77
2021/09/19 08:45:07;;;;;;;8.60;7.80;;;15.90;99.90;;;;;;4992282;28;20184;-75
2021/09/19 08:47:35;;;;;;;8.43;7.73;;;16.00;99.90;;;;;;4992241;28;20666;-77
2021/09/19 08:50:06;;;;;;;8.03;7.33;;;16.00;99.90;;;;;;4995925;28;20186;-77
2021/09/19 08:52:32;;;;;;;7.27;6.43;;;15.90;99.90;;;;;;4996107;28;20645;-76
2021/09/19 08:54:58;;;;;;;7.17;6.47;;;16.00;99.90;;;;;;4995108;28;20183;-76
2021/09/19 08:57:23;;;;;;;6.47;5.87;;;16.20;99.90;;;;;;4995812;28;20277;-76
2021/09/19 08:59:52;;;;;;;6.13;5.70;;;16.20;99.90;;;;;;4997483;28;20183;-76
2021/09/19 09:02:18;;;;;;;5.67;5.17;;;16.30;99.90;;;;;;4997781;28;20175;-76
2021/09/19 09:04:47;;;;;;;6.13;5.63;;;16.30;99.90;;;;;;4999970;28;20175;-77
2021/09/19 09:07:14;;;;;;;6.30;5.80;;;16.40;99.90;;;;;;4997433;28;20177;-77
2021/09/19 09:09:53;;;;;;;5.70;5.30;;;16.30;99.90;;;;;;4996671;28;20570;-76
2021/09/19 09:12:18;;;;;;;5.50;5.10;;;16.30;99.90;;;;;;5011330;28;20550;-76
2021/09/19 09:14:48;;;;;;;5.27;4.77;;;16.30;99.90;;;;;;4995616;28;20203;-77
2021/09/19 09:17:20;;;;;;;5.47;4.97;;;16.40;99.90;;;;;;4995270;28;20179;-77
2021/09/19 09:19:52;;;;;;;4.60;4.30;;;16.40;99.90;;;;;;4996260;28;20170;-77
2021/09/19 09:22:33;;;;;;;3.93;3.63;;;16.50;99.90;;;;;;4995018;28;20169;-77
2021/09/19 09:25:12;;;;;;;4.20;3.87;;;16.40;99.90;;;;;;4995388;28;20596;-77
2021/09/19 09:27:42;;;;;;;4.17;3.77;;;16.40;99.90;;;;;;5012485;28;20167;-77
2021/09/19 09:30:19;;;;;;;3.90;3.60;;;16.50;99.90;;;;;;4998049;28;20286;-77
2021/09/19 09:33:04;;;;;;;3.67;3.37;;;16.60;99.90;;;;;;4997726;28;20204;-77
2021/09/19 09:35:41;;;;;;;3.40;3.10;;;16.60;99.90;;;;;;4997247;28;20175;-78
2021/09/19 09:38:21;;;;;;;2.83;2.63;;;16.60;99.90;;;;;;5034707;22;20230;-82
2021/09/19 09:40:47;;;;;;;3.00;2.70;;;16.60;99.90;;;;;;5042004;28;20192;-82
2021/09/19 09:43:16;;;;;;;1.90;1.80;;;16.70;99.90;;;;;;5043119;28;20189;-81
2021/09/19 09:45:44;;;;;;;3.03;2.17;;;16.60;99.90;;;;;;5043878;28;20181;-82
2021/09/19 09:48:24;;;;;;;2.40;1.90;;;16.70;99.90;;;;;;5048891;28;20193;-82
2021/09/19 09:50:54;;;;;;;1.40;1.30;;;16.80;99.90;;;;;;5064445;28;20206;-82
2021/09/19 09:53:23;;;;;;;1.73;0.93;;;16.90;99.90;;;;;;5051630;28;20209;-82
2021/09/19 09:55:50;;;;;;;1.20;1.00;;;16.80;99.90;;;;;;5045526;28;20182;-82
2021/09/19 09:58:21;;;;;;;0.90;0.60;;;16.90;99.90;;;;;;5045096;28;20200;-81
2021/09/19 10:00:53;;;;;;;0.70;0.40;;;16.90;99.90;;;;;;5039094;28;20212;-84
2021/09/19 10:03:18;;;;;;;1.77;0.70;;;16.90;99.90;;;;;;5043323;28;20178;-82
2021/09/19 10:05:45;;;;;;;0.90;0.60;;;17.00;99.90;;;;;;5043079;28;20205;-82
2021/09/19 10:08:11;;;;;;;0.43;0.40;;;17.00;99.90;;;;;;5036981;28;20202;-82
2021/09/19 10:10:40;;;;;;;3.10;0.47;;;16.90;99.90;;;;;;5031318;28;20189;-81
2021/09/19 10:13:08;;;;;;;0.83;0.50;;;16.90;99.90;;;;;;5037993;28;20202;-82
2021/09/19 10:15:34;;;;;;;0.73;0.30;;;16.80;99.90;;;;;;5033106;28;20183;-82
2021/09/19 10:18:00;;;;;;;2.40;0.50;;;16.80;99.90;;;;;;5029688;28;20188;-82
2021/09/19 10:20:42;;;;;;;1.50;0.43;;;16.80;99.90;;;;;;5035980;28;20269;-82
2021/09/19 10:23:19;;;;;;;1.47;0.57;;;16.70;99.90;;;;;;5039839;28;20181;-81
2021/09/19 10:25:54;;;;;;;0.53;0.50;;;16.70;99.90;;;;;;5036796;28;20650;-79
2021/09/19 10:28:34;;;;;;;3.67;0.47;;;16.80;99.90;;;;;;5030460;28;20192;-81
2021/09/19 10:31:08;;;;;;;0.50;0.43;;;16.70;99.90;;;;;;5037806;28;20179;-82
2021/09/19 10:33:40;;;;;;;1.63;0.40;;;16.60;99.90;;;;;;5040425;28;20225;-81
2021/09/19 10:36:15;;;;;;;1.57;0.50;;;16.50;99.90;;;;;;5036940;28;20177;-81
2021/09/19 10:38:41;;;;;;;0.50;0.50;;;16.50;99.90;;;;;;5041211;28;20432;-82
2021/09/19 10:41:22;;;;;;;0.73;0.40;;;16.40;99.90;;;;;;5048959;28;20188;-83
2021/09/19 10:43:53;;;;;;;1.30;0.40;;;16.30;99.90;;;;;;5045834;28;20193;-83
2021/09/19 10:46:36;;;;;;;0.40;0.33;;;16.30;99.90;;;;;;5044449;28;20181;-82
2021/09/19 10:49:21;;;;;;;0.70;0.53;;;16.20;99.90;;;;;;5033916;28;20219;-83
2021/09/19 10:52:10;;;;;;;0.70;0.50;;;16.30;99.90;;;;;;5033355;28;20186;-84
2021/09/19 10:54:42;;;;;;;1.50;0.60;;;16.10;99.90;;;;;;5024814;28;20229;-83
2021/09/19 10:57:19;;;;;;;0.60;0.50;;;16.10;99.90;;;;;;5034716;28;20209;-82
2021/09/19 11:00:18;;;;;;;0.70;0.60;;;15.90;99.90;;;;;;5027103;28;20764;-83
2021/09/19 11:03:00;;;;;;;1.60;1.03;;;16.00;99.90;;;;;;4998625;28;20278;-83
2021/09/19 11:05:32;;;;;;;1.13;0.57;;;16.10;99.90;;;;;;5032532;28;20182;-82
2021/09/19 11:08:23;;;;;;;1.80;0.70;;;15.90;99.90;;;;;;5022917;28;20185;-83
2021/09/19 11:10:50;;;;;;;0.40;0.30;;;15.90;99.90;;;;;;5013487;28;20200;-82
2021/09/19 11:13:22;;;;;;;2.17;0.70;;;15.90;99.90;;;;;;5028915;28;20207;-82
2021/09/19 11:16:03;;;;;;;0.40;0.40;;;15.80;99.90;;;;;;5031480;28;20185;-82
2021/09/19 11:18:49;;;;;;;1.13;0.60;;;15.90;99.90;;;;;;5024977;28;20225;-82
2021/09/19 11:21:18;;;;;;;0.80;0.50;;;15.90;99.90;;;;;;5030864;28;20281;-83
2021/09/19 11:23:47;;;;;;;0.43;0.43;;;15.90;99.90;;;;;;5027879;28;20213;-82
2021/09/19 11:26:24;;;;;;;0.50;0.43;;;15.90;99.90;;;;;;5033749;28;20183;-82
2021/09/19 11:28:54;;;;;;;0.57;0.50;;;16.00;99.90;;;;;;5034052;28;20724;-81
2021/09/19 11:31:20;;;;;;;1.57;0.57;;;16.00;99.90;;;;;;5035890;28;21146;-82
2021/09/19 11:33:47;;;;;;;0.80;0.60;;;15.90;99.90;;;;;;5022618;28;20209;-81
2021/09/19 11:36:22;;;;;;;0.50;0.47;;;16.00;99.90;;;;;;5034561;28;20183;-82
2021/09/19 11:38:51;;;;;;;0.50;0.50;;;16.00;99.90;;;;;;5024415;28;20584;-83
2021/09/19 11:41:19;;;;;;;1.80;0.70;;;16.00;99.90;;;;;;5032708;28;20228;-82
2021/09/19 11:43:47;;;;;;;0.80;0.50;;;15.90;99.90;;;;;;5026135;28;20278;-82
2021/09/19 11:46:19;;;;;;;0.40;0.40;;;15.90;99.90;;;;;;5033183;28;20172;-82
2021/09/19 11:48:45;;;;;;;0.80;0.50;;;15.90;99.90;;;;;;5033836;28;20225;-82
2021/09/19 11:51:16;;;;;;;3.03;1.97;;;15.90;99.90;;;;;;5030394;28;20178;-82
2021/09/19 11:53:48;;;;;;;1.87;0.70;;;15.90;99.90;;;;;;5035553;28;20202;-82
2021/09/19 11:56:15;;;;;;;0.30;0.30;;;15.70;99.90;;;;;;5027663;28;20620;-82
2021/09/19 11:58:41;;;;;;;0.37;0.37;;;15.60;99.90;;;;;;5030679;28;20191;-82
2021/09/19 12:01:07;;;;;;;0.80;0.60;;;15.50;99.90;;;;;;5033677;28;20612;-82
2021/09/19 12:03:34;;;;;;;2.57;1.03;;;15.50;99.90;;;;;;5031423;28;20182;-82
2021/09/19 12:06:00;;;;;;;0.73;0.70;;;15.50;99.90;;;;;;5024748;28;20179;-82
2021/09/19 12:08:28;;;;;;;0.50;0.50;;;15.60;99.90;;;;;;5027527;28;20202;-82
2021/09/19 12:10:54;;;;;;;0.57;0.57;;;15.60;99.90;;;;;;5033569;28;20289;-82
2021/09/19 12:13:26;;;;;;;0.30;0.30;;;15.60;99.90;;;;;;5030036;28;20330;-83
2021/09/19 12:16:07;;;;;;;0.57;0.50;;;15.50;99.90;;;;;;5035243;28;20171;-82
2021/09/19 12:18:35;;;;;;;0.40;0.40;;;15.40;99.90;;;;;;5027878;28;20252;-82
2021/09/19 12:21:07;;;;;;;0.43;0.43;;;15.30;99.90;;;;;;5016999;28;20173;-82
2021/09/19 12:23:44;;;;;;;0.43;0.43;;;15.30;99.90;;;;;;5019423;28;20187;-82
2021/09/19 12:26:20;;;;;;;0.77;0.67;;;15.30;99.90;;;;;;5034681;28;20182;-82
2021/09/19 12:28:51;;;;;;;0.40;0.30;;;15.40;99.90;;;;;;5025061;28;20282;-83
2021/09/19 12:31:39;;;;;;;1.60;0.40;;;15.20;99.90;;;;;;5018305;28;20611;-82
2021/09/19 12:34:07;;;;;;;0.83;0.50;;;15.10;99.90;;;;;;5020064;28;20225;-82
2021/09/19 12:36:46;;;;;;;0.47;0.40;;;15.20;99.90;;;;;;5024714;28;20175;-83
2021/09/19 12:39:22;;;;;;;0.30;0.30;;;15.00;99.90;;;;;;5022926;28;20213;-82
2021/09/19 12:41:51;;;;;;;0.50;0.40;;;14.90;99.90;;;;;;5018575;28;20179;-82
2021/09/19 12:44:22;;;;;;;0.50;0.40;;;14.80;99.90;;;;;;5020904;28;20682;-83